createdAt,value
2024-02-08T00:00:02.057Z,50.00
2024-02-08T00:02:28.515Z,49.00
2024-02-08T00:04:56.412Z,47.00
2024-02-08T00:07:24.022Z,42.40
2024-02-08T00:09:53.189Z,50.75
2024-02-08T00:12:20.293Z,44.60
2024-02-08T00:14:46.850Z,45.00
2024-02-08T00:17:13.312Z,45.75
2024-02-08T00:19:40.637Z,44.25
2024-02-08T00:22:07.294Z,41.80
2024-02-08T00:24:38.052Z,45.20
2024-02-08T00:27:05.078Z,41.40
2024-02-08T00:29:31.483Z,35.80
2024-02-08T00:32:01.188Z,43.40
2024-02-08T00:34:28.158Z,45.50
2024-02-08T00:36:54.633Z,39.00
2024-02-08T00:39:21.085Z,38.75
2024-02-08T00:41:51.311Z,42.00
2024-02-08T00:44:20.929Z,44.75
2024-02-08T00:46:51.130Z,43.50
2024-02-08T00:49:17.846Z,37.80
2024-02-08T00:51:44.304Z,41.40
2024-02-08T00:54:10.816Z,44.00
2024-02-08T00:56:37.456Z,43.00
2024-02-08T00:59:04.089Z,44.40
2024-02-08T01:01:33.298Z,39.00
2024-02-08T01:03:59.873Z,43.25
2024-02-08T01:06:26.929Z,42.25
2024-02-08T01:08:55.661Z,36.40
2024-02-08T01:11:22.215Z,43.20
2024-02-08T01:13:49.677Z,38.00
2024-02-08T01:16:16.686Z,38.00
2024-02-08T01:18:43.418Z,46.75
2024-02-08T01:21:10.434Z,46.25
2024-02-08T01:23:37.376Z,45.00
2024-02-08T01:26:04.512Z,47.25
2024-02-08T01:28:31.326Z,44.00
2024-02-08T01:30:57.919Z,44.75
2024-02-08T01:33:24.780Z,40.25
2024-02-08T01:35:52.933Z,43.20
2024-02-08T01:38:19.576Z,41.75
2024-02-08T01:40:46.135Z,44.00
2024-02-08T01:43:12.667Z,36.00
2024-02-08T01:45:39.765Z,44.50
2024-02-08T01:48:13.050Z,37.80
2024-02-08T01:50:46.196Z,45.00
2024-02-08T01:53:15.338Z,41.00
2024-02-08T01:55:51.758Z,44.00
2024-02-08T01:58:19.118Z,43.00
2024-02-08T02:00:50.514Z,41.75
2024-02-08T02:03:18.085Z,43.75
2024-02-08T02:05:47.962Z,47.20
2024-02-08T02:08:17.777Z,45.00
2024-02-08T02:10:50.204Z,48.25
2024-02-08T02:13:17.268Z,43.75
2024-02-08T02:15:44.001Z,41.40
2024-02-08T02:18:11.651Z,46.25
2024-02-08T02:20:38.422Z,44.75
2024-02-08T02:23:10.523Z,48.50
2024-02-08T02:25:40.444Z,47.20
2024-02-08T02:28:09.225Z,40.00
2024-02-08T02:30:37.149Z,39.20
2024-02-08T02:33:07.348Z,41.50
2024-02-08T02:35:34.129Z,40.00
2024-02-08T02:38:04.434Z,45.50
2024-02-08T02:40:31.864Z,40.40
2024-02-08T02:42:59.216Z,45.20
2024-02-08T02:45:30.060Z,43.75
2024-02-08T02:47:57.567Z,34.50
2024-02-08T02:50:24.330Z,42.00
2024-02-08T02:52:51.367Z,45.60
2024-02-08T02:55:18.405Z,41.25
2024-02-08T02:57:44.997Z,34.60
2024-02-08T03:00:25.303Z,41.50
2024-02-08T03:02:54.123Z,39.25
2024-02-08T03:05:22.371Z,41.40
2024-02-08T03:07:49.655Z,37.75
2024-02-08T03:10:20.839Z,43.50
2024-02-08T03:12:50.845Z,38.00
2024-02-08T03:15:18.119Z,35.00
2024-02-08T03:17:44.965Z,32.50
2024-02-08T03:20:18.034Z,39.00
2024-02-08T03:22:47.491Z,38.25
2024-02-08T03:25:15.841Z,40.00
2024-02-08T03:27:43.977Z,39.40
2024-02-08T03:30:29.694Z,39.00
2024-02-08T03:32:57.050Z,40.00
2024-02-08T03:35:29.553Z,43.50
2024-02-08T03:37:56.652Z,45.75
2024-02-08T03:40:23.775Z,40.00
2024-02-08T03:42:54.706Z,48.80
2024-02-08T03:45:30.359Z,48.75
2024-02-08T03:48:02.225Z,45.50
2024-02-08T03:50:35.757Z,44.40
2024-02-08T03:53:06.035Z,47.50
2024-02-08T03:58:02.368Z,46.40
2024-02-08T04:00:32.478Z,50.00
2024-02-08T04:02:59.651Z,59.00
2024-02-08T04:05:46.558Z,51.50
2024-02-08T04:08:31.800Z,49.40
2024-02-08T04:10:58.557Z,46.20
2024-02-08T04:13:44.689Z,59.60
2024-02-08T04:16:30.262Z,55.00
2024-02-08T04:19:15.990Z,54.75
2024-02-08T04:22:02.891Z,50.00
2024-02-08T04:24:48.210Z,46.00
2024-02-08T04:27:33.184Z,47.50
2024-02-08T04:30:18.216Z,50.75
2024-02-08T04:33:06.142Z,50.00
2024-02-08T04:35:51.407Z,47.75
2024-02-08T04:38:36.655Z,48.50
2024-02-08T04:41:22.127Z,50.60
2024-02-08T04:44:07.651Z,48.50
2024-02-08T04:46:52.987Z,48.75
2024-02-08T04:49:38.248Z,51.40
2024-02-08T04:52:23.084Z,49.00
2024-02-08T04:54:49.847Z,47.00
2024-02-08T04:57:16.418Z,45.00
2024-02-08T04:59:44.417Z,54.00
2024-02-08T05:02:12.406Z,53.00
2024-02-08T05:04:39.008Z,53.75
2024-02-08T05:07:06.380Z,50.25
2024-02-08T05:09:33.450Z,50.00
2024-02-08T05:12:07.238Z,57.00
2024-02-08T05:14:36.842Z,66.60
2024-02-08T05:17:03.521Z,57.00
2024-02-08T05:19:30.246Z,62.50
2024-02-08T05:22:00.855Z,57.00
2024-02-08T05:24:29.258Z,53.00
2024-02-08T05:26:56.167Z,60.40
2024-02-08T05:29:22.682Z,51.60
2024-02-08T05:31:50.919Z,53.00
2024-02-08T05:34:18.940Z,55.40
2024-02-08T05:36:47.771Z,67.00
2024-02-08T05:39:14.740Z,63.00
2024-02-08T05:41:45.952Z,64.50
2024-02-08T05:44:13.826Z,69.50
2024-02-08T05:46:40.501Z,64.80
2024-02-08T05:49:15.003Z,61.20
2024-02-08T05:51:48.523Z,62.00
2024-02-08T05:54:21.583Z,58.20
2024-02-08T05:56:51.065Z,70.00
2024-02-08T05:59:19.369Z,66.50
2024-02-08T06:01:48.420Z,60.60
2024-02-08T06:04:26.036Z,63.40
2024-02-08T06:07:13.513Z,65.00
2024-02-08T06:09:49.179Z,62.25
2024-02-08T06:12:37.909Z,59.20
2024-02-08T06:15:23.400Z,57.50
2024-02-08T06:18:00.546Z,60.25
2024-02-08T06:20:45.480Z,65.33
2024-02-08T06:23:19.100Z,59.00
2024-02-08T06:26:02.405Z,58.50
2024-02-08T06:28:30.476Z,58.75
2024-02-08T06:31:00.189Z,63.80
2024-02-08T06:33:27.271Z,56.00
2024-02-08T06:35:58.203Z,58.80
2024-02-08T06:38:42.813Z,61.25
2024-02-08T06:41:25.035Z,56.25
2024-02-08T06:43:58.676Z,69.25
2024-02-08T06:46:49.570Z,62.20
2024-02-08T06:49:35.267Z,66.50
2024-02-08T06:52:20.614Z,65.00
2024-02-08T06:55:05.970Z,68.50
2024-02-08T06:57:50.922Z,65.80
2024-02-08T07:00:35.924Z,66.75
2024-02-08T07:03:21.223Z,65.00
2024-02-08T07:06:07.820Z,62.50
2024-02-08T07:09:12.568Z,63.00
2024-02-08T07:11:57.451Z,60.40
2024-02-08T07:14:42.654Z,68.00
2024-02-08T07:17:27.607Z,66.75
2024-02-08T07:20:13.146Z,63.25
2024-02-08T07:22:58.191Z,58.20
2024-02-08T07:25:43.033Z,57.60
2024-02-08T07:28:28.183Z,57.60
2024-02-08T07:31:13.342Z,57.40
2024-02-08T07:33:58.455Z,58.40
2024-02-08T07:36:43.620Z,57.00
2024-02-08T07:39:28.582Z,58.00
2024-02-08T07:41:55.280Z,49.40
2024-02-08T07:44:24.138Z,50.75
2024-02-08T07:46:51.153Z,45.80
2024-02-08T07:49:18.091Z,50.00
2024-02-08T07:51:51.925Z,52.75
2024-02-08T07:54:21.783Z,56.00
2024-02-08T07:56:48.663Z,51.75
2024-02-08T07:59:18.254Z,52.75
2024-02-08T08:01:52.193Z,50.40
2024-02-08T08:04:40.850Z,55.00
2024-02-08T08:07:10.934Z,47.40
2024-02-08T08:09:37.909Z,54.60
2024-02-08T08:12:08.274Z,53.50
2024-02-08T08:14:40.880Z,53.80
2024-02-08T08:17:28.190Z,58.50
2024-02-08T08:19:54.743Z,58.60
2024-02-08T08:22:24.794Z,61.20
2024-02-08T08:25:13.247Z,61.50
2024-02-08T08:28:00.354Z,62.40
2024-02-08T08:30:32.558Z,67.75
2024-02-08T08:33:10.139Z,63.00
2024-02-08T08:35:37.446Z,57.25
2024-02-08T08:38:19.892Z,50.00
2024-02-08T08:40:50.384Z,48.50
2024-02-08T08:43:21.629Z,44.25
2024-02-08T08:45:52.233Z,47.20
2024-02-08T08:48:22.410Z,46.00
2024-02-08T08:50:58.683Z,44.80
2024-02-08T08:53:28.751Z,43.60
2024-02-08T08:55:58.907Z,44.50
2024-02-08T08:58:41.950Z,50.60
2024-02-08T09:01:16.655Z,46.20
2024-02-08T09:03:45.180Z,43.00
2024-02-08T09:06:15.413Z,40.00
2024-02-08T09:08:56.755Z,42.00
2024-02-08T09:11:26.199Z,44.75
2024-02-08T09:13:53.247Z,47.60
2024-02-08T09:16:23.198Z,41.50
2024-02-08T09:19:03.169Z,33.25
2024-02-08T09:21:34.422Z,35.60
2024-02-08T09:24:04.585Z,43.75
2024-02-08T09:26:47.393Z,39.67
2024-02-08T09:29:14.368Z,29.00
2024-02-08T09:31:40.883Z,32.60
2024-02-08T09:34:16.104Z,38.75
2024-02-08T09:36:43.849Z,26.50
2024-02-08T09:39:16.324Z,29.00
2024-02-08T09:41:49.111Z,38.60
2024-02-08T09:44:15.823Z,37.40
2024-02-08T09:46:45.463Z,33.20
2024-02-08T09:49:16.279Z,36.00
2024-02-08T09:51:54.214Z,46.25
2024-02-08T09:54:28.838Z,48.00
2024-02-08T09:57:02.482Z,49.25
2024-02-08T10:00:00.652Z,54.00
2024-02-08T10:02:34.789Z,48.25
2024-02-08T10:05:20.593Z,41.00
2024-02-08T10:08:06.518Z,49.00
2024-02-08T10:10:39.746Z,59.00
2024-02-08T10:13:07.744Z,48.00
2024-02-08T10:15:40.770Z,53.00
2024-02-08T10:18:13.115Z,60.20
2024-02-08T10:20:48.541Z,48.60
2024-02-08T10:23:34.876Z,45.50
2024-02-08T10:26:20.401Z,32.00
2024-02-08T10:28:55.135Z,31.25
2024-02-08T10:31:31.021Z,31.80
2024-02-08T10:34:11.475Z,32.60
2024-02-08T10:36:41.047Z,33.75
2024-02-08T10:39:25.452Z,33.20
2024-02-08T10:42:00.220Z,28.80
2024-02-08T10:44:34.179Z,35.00
2024-02-08T10:47:11.406Z,37.50
2024-02-08T10:49:53.147Z,38.00
2024-02-08T10:52:23.969Z,46.00
2024-02-08T10:54:53.582Z,43.00
2024-02-08T10:57:58.941Z,40.00
2024-02-08T11:00:42.317Z,44.25
2024-02-08T11:03:16.002Z,45.40
2024-02-08T11:05:54.709Z,43.00
2024-02-08T11:08:34.530Z,41.25
2024-02-08T11:11:05.167Z,37.50
2024-02-08T11:13:39.493Z,37.25
2024-02-08T11:16:21.113Z,38.60
2024-02-08T11:18:54.127Z,34.25
2024-02-08T11:21:26.116Z,40.40
2024-02-08T11:23:53.767Z,42.75
2024-02-08T11:26:27.045Z,26.40
2024-02-08T11:29:03.302Z,26.60
2024-02-08T11:31:34.161Z,25.60
2024-02-08T11:34:15.149Z,23.80
2024-02-08T11:36:45.120Z,14.00
2024-02-08T11:39:30.993Z,23.80
2024-02-08T11:42:06.604Z,12.00
2024-02-08T11:44:44.764Z,17.25
2024-02-08T11:47:21.185Z,15.00
2024-02-08T11:50:02.269Z,14.75
2024-02-08T11:52:29.747Z,11.40
2024-02-08T11:55:03.049Z,12.00
2024-02-08T11:57:38.269Z,14.75
2024-02-08T12:00:18.234Z,12.60
2024-02-08T12:02:59.281Z,12.60
2024-02-08T12:07:53.390Z,11.00
2024-02-08T12:10:23.530Z,12.40
2024-02-08T12:12:54.611Z,12.00
2024-02-08T12:15:24.319Z,20.00
2024-02-08T12:17:55.972Z,14.25
2024-02-08T12:20:24.935Z,14.00
2024-02-08T12:22:55.169Z,20.60
2024-02-08T12:25:21.779Z,15.50
2024-02-08T12:27:54.120Z,20.50
2024-02-08T12:30:23.616Z,24.00
2024-02-08T12:32:54.443Z,22.00
2024-02-08T12:35:22.017Z,23.80
2024-02-08T12:37:50.026Z,19.00
2024-02-08T12:40:18.026Z,20.00
2024-02-08T12:42:44.760Z,16.40
2024-02-08T12:45:14.126Z,23.25
2024-02-08T12:47:40.704Z,17.50
2024-02-08T12:50:18.158Z,15.50
2024-02-08T12:52:56.115Z,16.50
2024-02-08T12:55:30.763Z,19.00
2024-02-08T12:57:59.647Z,19.75
2024-02-08T13:00:26.717Z,17.50
2024-02-08T13:02:55.692Z,21.40
2024-02-08T13:05:30.847Z,17.25
2024-02-08T13:07:58.792Z,21.00
2024-02-08T13:10:26.143Z,22.00
2024-02-08T13:12:59.722Z,23.00
2024-02-08T13:15:26.205Z,22.25
2024-02-08T13:17:53.027Z,26.25
2024-02-08T13:20:20.114Z,21.60
2024-02-08T13:22:47.297Z,20.00
2024-02-08T13:25:14.804Z,21.40
2024-02-08T13:27:42.267Z,29.50
2024-02-08T13:30:16.095Z,28.50
2024-02-08T13:32:52.864Z,24.75
2024-02-08T13:35:20.722Z,25.00
2024-02-08T13:37:51.826Z,27.00
2024-02-08T13:40:19.598Z,21.20
2024-02-08T13:42:52.140Z,31.00
2024-02-08T13:45:26.607Z,23.00
2024-02-08T13:47:58.756Z,27.80
2024-02-08T13:50:33.719Z,24.60
2024-02-08T13:53:05.549Z,25.40
2024-02-08T13:55:45.658Z,27.25
2024-02-08T13:58:19.647Z,27.25
2024-02-08T14:00:46.499Z,22.80
2024-02-08T14:03:17.856Z,35.60
2024-02-08T14:05:52.107Z,32.50
2024-02-08T14:08:19.695Z,28.80
2024-02-08T14:10:46.640Z,34.25
2024-02-08T14:13:17.833Z,29.40
2024-02-08T14:15:50.037Z,27.40
2024-02-08T14:18:28.585Z,28.40
2024-02-08T14:20:59.749Z,39.60
2024-02-08T14:23:38.844Z,35.80
2024-02-08T14:26:09.251Z,36.40
2024-02-08T14:28:41.247Z,33.75
2024-02-08T14:31:10.282Z,37.75
2024-02-08T14:33:37.765Z,32.00
2024-02-08T14:36:08.268Z,33.00
2024-02-08T14:38:38.021Z,31.00
2024-02-08T14:41:04.947Z,28.80
2024-02-08T14:43:33.372Z,31.75
2024-02-08T14:46:00.684Z,30.00
2024-02-08T14:48:30.047Z,31.80
2024-02-08T14:51:18.301Z,29.00
2024-02-08T14:53:45.977Z,31.50
2024-02-08T14:56:20.032Z,35.00
2024-02-08T14:58:58.761Z,31.67
2024-02-08T15:01:41.116Z,32.25
2024-02-08T15:04:18.947Z,38.50
2024-02-08T15:07:07.404Z,34.60
2024-02-08T15:09:38.735Z,39.00
2024-02-08T15:12:06.140Z,36.00
2024-02-08T15:14:38.684Z,34.25
2024-02-08T15:17:20.596Z,38.67
2024-02-08T15:19:48.975Z,32.00
2024-02-08T15:22:28.670Z,37.00
2024-02-08T15:24:59.143Z,32.75
2024-02-08T15:27:44.169Z,29.40
2024-02-08T15:30:18.277Z,29.50
2024-02-08T15:32:48.423Z,34.20
2024-02-08T15:35:27.618Z,31.60
2024-02-08T15:38:13.288Z,30.75
2024-02-08T15:40:44.924Z,37.20
2024-02-08T15:43:17.212Z,32.00
2024-02-08T15:45:54.234Z,33.40
2024-02-08T15:48:33.301Z,32.50
2024-02-08T15:51:10.360Z,30.80
2024-02-08T15:53:51.040Z,40.25
2024-02-08T15:56:20.550Z,42.75
2024-02-08T15:58:48.066Z,36.00
2024-02-08T16:01:14.725Z,43.20
2024-02-08T16:03:41.636Z,30.00
2024-02-08T16:06:28.975Z,27.00
2024-02-08T16:08:59.039Z,32.40
2024-02-08T16:11:30.938Z,36.75
2024-02-08T16:14:04.382Z,30.00
2024-02-08T16:16:34.498Z,34.50
2024-02-08T16:19:21.325Z,37.00
2024-02-08T16:21:48.444Z,35.75
2024-02-08T16:24:19.250Z,35.00
2024-02-08T16:26:50.760Z,31.20
2024-02-08T16:29:21.560Z,39.00
2024-02-08T16:31:56.051Z,41.75
2024-02-08T16:34:27.783Z,32.50
2024-02-08T16:36:54.491Z,33.00
2024-02-08T16:39:21.032Z,37.00
2024-02-08T16:42:01.190Z,32.00
2024-02-08T16:44:36.072Z,37.00
2024-02-08T16:47:11.937Z,37.80
2024-02-08T16:49:43.485Z,40.50
2024-02-08T16:52:20.483Z,39.60
2024-02-08T16:55:00.385Z,31.80
2024-02-08T16:57:32.691Z,38.00
2024-02-08T17:00:19.420Z,36.20
2024-02-08T17:03:01.817Z,40.40
2024-02-08T17:05:40.167Z,34.75
2024-02-08T17:08:07.488Z,34.00
2024-02-08T17:10:47.309Z,34.00
2024-02-08T17:13:22.357Z,42.00
2024-02-08T17:16:05.049Z,39.00
2024-02-08T17:18:38.357Z,42.50
2024-02-08T17:21:14.854Z,35.00
2024-02-08T17:23:54.807Z,36.75
2024-02-08T17:26:36.582Z,42.25
2024-02-08T17:29:20.567Z,42.20
2024-02-08T17:31:48.395Z,38.50
2024-02-08T17:34:16.166Z,38.80
2024-02-08T17:36:54.656Z,38.20
2024-02-08T17:39:40.516Z,36.50
2024-02-08T17:42:10.574Z,34.50
2024-02-08T17:44:39.002Z,27.00
2024-02-08T17:47:09.269Z,36.50
2024-02-08T17:49:36.184Z,32.00
2024-02-08T17:52:03.184Z,35.80
2024-02-08T17:54:53.470Z,31.75
2024-02-08T17:57:26.347Z,27.80
2024-02-08T17:59:59.884Z,34.50
2024-02-08T18:02:27.531Z,27.00
2024-02-08T18:04:54.831Z,33.40
2024-02-08T18:07:21.586Z,30.00
2024-02-08T18:10:12.504Z,37.00
2024-02-08T18:12:43.309Z,29.75
2024-02-08T18:15:14.444Z,30.40
2024-02-08T18:17:45.899Z,23.00
2024-02-08T18:20:18.772Z,24.00
2024-02-08T18:22:46.424Z,23.40
2024-02-08T18:25:22.552Z,21.80
2024-02-08T18:27:49.163Z,25.50
2024-02-08T18:30:19.823Z,22.50
2024-02-08T18:32:48.375Z,26.00
2024-02-08T18:35:18.097Z,24.20
2024-02-08T18:37:48.309Z,27.25
2024-02-08T18:40:25.287Z,22.00
2024-02-08T18:42:55.970Z,29.50
2024-02-08T18:45:26.228Z,20.20
2024-02-08T18:47:53.668Z,22.80
2024-02-08T18:50:26.114Z,23.80
2024-02-08T18:52:56.298Z,25.20
2024-02-08T18:55:46.353Z,22.50
2024-02-08T18:58:33.577Z,23.25
2024-02-08T19:01:01.248Z,29.00
2024-02-08T19:03:32.142Z,31.33
2024-02-08T19:06:01.391Z,26.00
2024-02-08T19:08:31.222Z,20.40
2024-02-08T19:11:01.513Z,25.60
2024-02-08T19:13:29.773Z,30.60
2024-02-08T19:16:02.241Z,22.50
2024-02-08T19:18:33.805Z,18.00
2024-02-08T19:21:01.257Z,19.60
2024-02-08T19:23:29.267Z,16.80
2024-02-08T19:25:59.461Z,22.75
2024-02-08T19:28:26.611Z,15.00
2024-02-08T19:30:57.400Z,24.60
2024-02-08T19:33:27.180Z,19.20
2024-02-08T19:35:58.318Z,25.00
2024-02-08T19:38:27.501Z,21.25
2024-02-08T19:40:56.722Z,19.40
2024-02-08T19:43:27.723Z,23.00
2024-02-08T19:46:04.088Z,20.33
2024-02-08T19:48:33.150Z,18.00
2024-02-08T19:51:09.408Z,16.50
2024-02-08T19:53:38.063Z,18.40
2024-02-08T19:56:09.002Z,15.75
2024-02-08T19:58:35.756Z,24.60
2024-02-08T20:01:10.747Z,24.00
2024-02-08T20:03:37.605Z,25.50
2024-02-08T20:06:12.084Z,20.00
2024-02-08T20:08:39.770Z,24.60
2024-02-08T20:11:12.971Z,21.60
2024-02-08T20:13:39.765Z,20.60
2024-02-08T20:16:07.799Z,26.80
2024-02-08T20:18:38.431Z,22.40
2024-02-08T20:21:06.533Z,14.50
2024-02-08T20:23:40.788Z,20.75
2024-02-08T20:26:09.851Z,23.80
2024-02-08T20:28:37.384Z,20.80
2024-02-08T20:31:08.796Z,14.00
2024-02-08T20:33:38.877Z,21.00
2024-02-08T20:36:09.868Z,16.20
2024-02-08T20:38:36.723Z,22.25
2024-02-08T20:41:04.023Z,25.00
2024-02-08T20:43:38.103Z,23.25
2024-02-08T20:46:06.628Z,15.75
2024-02-08T20:48:35.710Z,19.80
2024-02-08T20:51:02.758Z,22.80
2024-02-08T20:53:29.183Z,25.25
2024-02-08T20:55:57.054Z,19.00
2024-02-08T20:58:23.586Z,22.50
2024-02-08T21:00:53.248Z,20.00
2024-02-08T21:03:27.990Z,18.20
2024-02-08T21:05:56.180Z,16.00
2024-02-08T21:08:24.868Z,19.00
2024-02-08T21:10:53.545Z,21.80
2024-02-08T21:13:23.203Z,16.50
2024-02-08T21:15:52.154Z,22.40
2024-02-08T21:18:22.028Z,17.25
2024-02-08T21:20:50.691Z,25.00
2024-02-08T21:23:19.299Z,20.00
2024-02-08T21:25:51.110Z,17.80
2024-02-08T21:28:21.110Z,17.25
2024-02-08T21:30:47.780Z,22.50
2024-02-08T21:33:16.055Z,13.20
2024-02-08T21:35:49.023Z,14.50
2024-02-08T21:38:17.355Z,22.80
2024-02-08T21:40:46.868Z,22.25
2024-02-08T21:43:16.486Z,24.20
2024-02-08T21:45:44.242Z,20.40
2024-02-08T21:48:17.644Z,22.80
2024-02-08T21:50:48.707Z,17.20
2024-02-08T21:53:15.558Z,17.00
2024-02-08T21:55:47.231Z,20.00
2024-02-08T21:58:14.004Z,13.25
2024-02-08T22:00:41.205Z,25.00
2024-02-08T22:03:08.267Z,27.25
2024-02-08T22:05:36.669Z,24.40
2024-02-08T22:08:04.680Z,17.75
2024-02-08T22:10:31.235Z,33.25
2024-02-08T22:12:57.660Z,22.00
2024-02-08T22:15:31.485Z,19.60
2024-02-08T22:17:59.735Z,24.00
2024-02-08T22:20:26.232Z,24.00
2024-02-08T22:22:52.746Z,23.80
2024-02-08T22:25:19.596Z,19.25
2024-02-08T22:27:46.020Z,22.60
2024-02-08T22:30:12.940Z,24.40
2024-02-08T22:32:40.787Z,26.75
2024-02-08T22:35:11.774Z,28.00
2024-02-08T22:37:47.122Z,23.25
2024-02-08T22:40:13.978Z,23.40
2024-02-08T22:42:42.225Z,25.00
2024-02-08T22:45:13.108Z,22.00
2024-02-08T22:47:40.416Z,23.20
2024-02-08T22:50:13.726Z,29.00
2024-02-08T22:52:40.957Z,18.20
2024-02-08T22:55:29.946Z,18.40
2024-02-08T22:57:59.983Z,26.40
2024-02-08T23:00:26.882Z,30.50
2024-02-08T23:02:56.423Z,26.00
2024-02-08T23:05:28.087Z,25.60
2024-02-08T23:07:55.976Z,21.25
2024-02-08T23:10:22.482Z,23.80
2024-02-08T23:12:53.754Z,28.00
2024-02-08T23:15:25.525Z,19.50
2024-02-08T23:17:55.994Z,25.80
2024-02-08T23:20:23.150Z,28.20
2024-02-08T23:22:50.442Z,28.40
2024-02-08T23:25:18.277Z,22.50
2024-02-08T23:27:50.889Z,30.60
2024-02-08T23:30:19.524Z,30.75
2024-02-08T23:32:52.375Z,16.00
2024-02-08T23:35:25.688Z,25.75
2024-02-08T23:37:56.654Z,27.80
2024-02-08T23:40:27.804Z,29.33
2024-02-08T23:42:57.203Z,35.25
2024-02-08T23:45:27.915Z,29.75
2024-02-08T23:47:57.921Z,25.00
2024-02-08T23:50:27.873Z,23.25
2024-02-08T23:53:01.293Z,35.00
2024-02-08T23:55:29.014Z,23.00
2024-02-08T23:57:57.182Z,28.00
